sensor_id;sensor_type;location;lat;lon;timestamp;P1;durP1;ratioP1;P2;durP2;ratioP2
6203;SDS011;3135;42.602;23.468;2023-08-30T00:02:03;12.47;;;5.03;;
6203;SDS011;3135;42.602;23.468;2023-08-30T00:04:28;7.60;;;4.68;;
6203;SDS011;3135;42.602;23.468;2023-08-30T00:06:54;10.20;;;4.67;;
6203;SDS011;3135;42.602;23.468;2023-08-30T00:09:19;5.93;;;4.23;;
6203;SDS011;3135;42.602;23.468;2023-08-30T00:11:45;6.60;;;5.10;;
6203;SDS011;3135;42.602;23.468;2023-08-30T00:14:10;6.77;;;5.27;;
6203;SDS011;3135;42.602;23.468;2023-08-30T00:16:36;10.17;;;5.00;;
6203;SDS011;3135;42.602;23.468;2023-08-30T00:19:03;7.70;;;5.03;;
6203;SDS011;3135;42.602;23.468;2023-08-30T00:21:29;6.80;;;4.85;;
6203;SDS011;3135;42.602;23.468;2023-08-30T00:23:55;7.10;;;5.18;;
6203;SDS011;3135;42.602;23.468;2023-08-30T00:26:20;6.72;;;4.72;;
6203;SDS011;3135;42.602;23.468;2023-08-30T00:28:46;8.53;;;4.90;;
6203;SDS011;3135;42.602;23.468;2023-08-30T00:31:11;6.83;;;4.63;;
6203;SDS011;3135;42.602;23.468;2023-08-30T00:33:37;6.93;;;4.60;;
6203;SDS011;3135;42.602;23.468;2023-08-30T00:36:02;5.70;;;4.20;;
6203;SDS011;3135;42.602;23.468;2023-08-30T00:38:30;6.28;;;4.05;;
6203;SDS011;3135;42.602;23.468;2023-08-30T00:40:58;7.88;;;4.65;;
6203;SDS011;3135;42.602;23.468;2023-08-30T00:43:24;6.47;;;4.20;;
6203;SDS011;3135;42.602;23.468;2023-08-30T00:45:49;7.33;;;4.50;;
6203;SDS011;3135;42.602;23.468;2023-08-30T00:48:15;7.80;;;4.70;;
6203;SDS011;3135;42.602;23.468;2023-08-30T00:50:43;6.88;;;4.30;;
6203;SDS011;3135;42.602;23.468;2023-08-30T00:53:09;7.03;;;4.30;;
6203;SDS011;3135;42.602;23.468;2023-08-30T00:55:36;6.97;;;4.60;;
6203;SDS011;3135;42.602;23.468;2023-08-30T00:58:02;8.50;;;4.88;;
6203;SDS011;3135;42.602;23.468;2023-08-30T01:00:31;5.47;;;4.28;;
6203;SDS011;3135;42.602;23.468;2023-08-30T01:02:58;6.45;;;4.50;;
6203;SDS011;3135;42.602;23.468;2023-08-30T01:05:23;5.93;;;3.70;;
6203;SDS011;3135;42.602;23.468;2023-08-30T01:07:50;9.07;;;4.43;;
6203;SDS011;3135;42.602;23.468;2023-08-30T01:10:16;8.35;;;3.88;;
6203;SDS011;3135;42.602;23.468;2023-08-30T01:12:45;8.73;;;3.80;;
6203;SDS011;3135;42.602;23.468;2023-08-30T01:15:20;6.50;;;3.67;;
6203;SDS011;3135;42.602;23.468;2023-08-30T01:17:48;6.35;;;3.88;;
6203;SDS011;3135;42.602;23.468;2023-08-30T01:20:16;6.10;;;4.00;;
6203;SDS011;3135;42.602;23.468;2023-08-30T01:28:07;4.80;;;3.33;;
6203;SDS011;3135;42.602;23.468;2023-08-30T01:30:35;6.10;;;3.45;;
6203;SDS011;3135;42.602;23.468;2023-08-30T01:33:03;4.30;;;3.22;;
6203;SDS011;3135;42.602;23.468;2023-08-30T01:35:29;7.75;;;3.42;;
6203;SDS011;3135;42.602;23.468;2023-08-30T01:38:01;5.82;;;3.38;;
6203;SDS011;3135;42.602;23.468;2023-08-30T01:40:30;7.35;;;3.30;;
6203;SDS011;3135;42.602;23.468;2023-08-30T01:43:00;4.28;;;3.28;;
6203;SDS011;3135;42.602;23.468;2023-08-30T01:45:26;6.38;;;3.30;;
6203;SDS011;3135;42.602;23.468;2023-08-30T01:47:54;5.10;;;3.15;;
6203;SDS011;3135;42.602;23.468;2023-08-30T01:50:21;7.73;;;3.47;;
6203;SDS011;3135;42.602;23.468;2023-08-30T01:52:46;10.17;;;3.67;;
6203;SDS011;3135;42.602;23.468;2023-08-30T01:55:13;5.32;;;3.63;;
6203;SDS011;3135;42.602;23.468;2023-08-30T01:57:40;6.22;;;3.85;;
6203;SDS011;3135;42.602;23.468;2023-08-30T02:00:05;5.23;;;3.57;;
6203;SDS011;3135;42.602;23.468;2023-08-30T02:02:32;5.97;;;3.90;;
6203;SDS011;3135;42.602;23.468;2023-08-30T02:04:58;7.13;;;3.60;;
6203;SDS011;3135;42.602;23.468;2023-08-30T02:10:11;6.57;;;3.50;;
6203;SDS011;3135;42.602;23.468;2023-08-30T02:12:44;5.22;;;3.67;;
6203;SDS011;3135;42.602;23.468;2023-08-30T02:15:12;4.57;;;3.47;;
6203;SDS011;3135;42.602;23.468;2023-08-30T02:17:39;6.47;;;3.35;;
6203;SDS011;3135;42.602;23.468;2023-08-30T02:20:05;5.03;;;3.35;;
6203;SDS011;3135;42.602;23.468;2023-08-30T02:22:32;4.93;;;3.17;;
6203;SDS011;3135;42.602;23.468;2023-08-30T02:24:58;5.25;;;3.20;;
6203;SDS011;3135;42.602;23.468;2023-08-30T02:27:24;4.18;;;3.13;;
6203;SDS011;3135;42.602;23.468;2023-08-30T02:29:49;6.18;;;3.30;;
6203;SDS011;3135;42.602;23.468;2023-08-30T02:32:15;5.47;;;3.20;;
6203;SDS011;3135;42.602;23.468;2023-08-30T02:34:45;4.10;;;2.60;;
6203;SDS011;3135;42.602;23.468;2023-08-30T02:37:12;4.13;;;2.80;;
6203;SDS011;3135;42.602;23.468;2023-08-30T02:39:37;4.35;;;3.08;;
6203;SDS011;3135;42.602;23.468;2023-08-30T02:42:03;3.77;;;3.03;;
6203;SDS011;3135;42.602;23.468;2023-08-30T02:44:28;6.47;;;3.53;;
6203;SDS011;3135;42.602;23.468;2023-08-30T02:46:54;5.10;;;3.20;;
6203;SDS011;3135;42.602;23.468;2023-08-30T02:49:19;5.50;;;3.40;;
6203;SDS011;3135;42.602;23.468;2023-08-30T02:51:44;7.63;;;3.63;;
6203;SDS011;3135;42.602;23.468;2023-08-30T02:54:10;5.67;;;3.30;;
6203;SDS011;3135;42.602;23.468;2023-08-30T02:56:37;4.30;;;3.40;;
6203;SDS011;3135;42.602;23.468;2023-08-30T02:59:02;6.17;;;3.30;;
6203;SDS011;3135;42.602;23.468;2023-08-30T03:01:28;8.52;;;3.75;;
6203;SDS011;3135;42.602;23.468;2023-08-30T03:03:53;5.50;;;3.63;;
6203;SDS011;3135;42.602;23.468;2023-08-30T03:06:19;6.67;;;3.90;;
6203;SDS011;3135;42.602;23.468;2023-08-30T03:08:44;6.23;;;3.50;;
6203;SDS011;3135;42.602;23.468;2023-08-30T03:11:10;7.37;;;3.33;;
6203;SDS011;3135;42.602;23.468;2023-08-30T03:13:36;6.78;;;3.45;;
6203;SDS011;3135;42.602;23.468;2023-08-30T03:16:09;3.50;;;2.97;;
6203;SDS011;3135;42.602;23.468;2023-08-30T03:18:36;5.05;;;3.30;;
6203;SDS011;3135;42.602;23.468;2023-08-30T03:21:01;5.35;;;3.10;;
6203;SDS011;3135;42.602;23.468;2023-08-30T03:23:27;4.55;;;3.05;;
6203;SDS011;3135;42.602;23.468;2023-08-30T03:25:53;5.27;;;3.60;;
6203;SDS011;3135;42.602;23.468;2023-08-30T03:28:18;5.87;;;3.20;;
6203;SDS011;3135;42.602;23.468;2023-08-30T03:30:43;7.30;;;3.07;;
6203;SDS011;3135;42.602;23.468;2023-08-30T03:33:09;6.28;;;3.03;;
6203;SDS011;3135;42.602;23.468;2023-08-30T03:35:34;7.67;;;3.00;;
6203;SDS011;3135;42.602;23.468;2023-08-30T03:38:00;3.67;;;2.80;;
6203;SDS011;3135;42.602;23.468;2023-08-30T03:40:25;5.53;;;2.70;;
6203;SDS011;3135;42.602;23.468;2023-08-30T03:42:52;5.00;;;2.90;;
6203;SDS011;3135;42.602;23.468;2023-08-30T03:45:18;4.40;;;2.83;;
6203;SDS011;3135;42.602;23.468;2023-08-30T03:47:43;6.80;;;3.45;;
6203;SDS011;3135;42.602;23.468;2023-08-30T03:50:09;5.70;;;3.10;;
6203;SDS011;3135;42.602;23.468;2023-08-30T03:52:34;3.70;;;2.80;;
6203;SDS011;3135;42.602;23.468;2023-08-30T03:55:00;4.90;;;3.10;;
6203;SDS011;3135;42.602;23.468;2023-08-30T03:57:26;6.53;;;3.07;;
6203;SDS011;3135;42.602;23.468;2023-08-30T03:59:51;6.47;;;3.37;;
6203;SDS011;3135;42.602;23.468;2023-08-30T04:02:17;5.83;;;3.20;;
6203;SDS011;3135;42.602;23.468;2023-08-30T04:04:42;4.83;;;2.93;;
6203;SDS011;3135;42.602;23.468;2023-08-30T04:07:07;4.60;;;2.90;;
6203;SDS011;3135;42.602;23.468;2023-08-30T04:09:33;5.27;;;2.90;;
6203;SDS011;3135;42.602;23.468;2023-08-30T04:11:58;5.00;;;2.83;;
6203;SDS011;3135;42.602;23.468;2023-08-30T04:14:25;3.40;;;2.75;;
6203;SDS011;3135;42.602;23.468;2023-08-30T04:16:51;3.70;;;2.57;;
6203;SDS011;3135;42.602;23.468;2023-08-30T04:19:16;3.60;;;2.22;;
6203;SDS011;3135;42.602;23.468;2023-08-30T04:21:42;3.88;;;2.40;;
6203;SDS011;3135;42.602;23.468;2023-08-30T04:24:07;5.63;;;2.60;;
6203;SDS011;3135;42.602;23.468;2023-08-30T04:26:33;4.40;;;2.63;;
6203;SDS011;3135;42.602;23.468;2023-08-30T04:28:58;5.83;;;2.90;;
6203;SDS011;3135;42.602;23.468;2023-08-30T04:31:23;6.38;;;2.55;;
6203;SDS011;3135;42.602;23.468;2023-08-30T04:33:49;6.40;;;3.03;;
6203;SDS011;3135;42.602;23.468;2023-08-30T04:36:14;6.53;;;3.30;;
6203;SDS011;3135;42.602;23.468;2023-08-30T04:38:40;9.13;;;3.40;;
6203;SDS011;3135;42.602;23.468;2023-08-30T04:41:05;7.35;;;3.00;;
6203;SDS011;3135;42.602;23.468;2023-08-30T04:43:30;6.03;;;3.10;;
6203;SDS011;3135;42.602;23.468;2023-08-30T04:45:56;7.63;;;3.40;;
6203;SDS011;3135;42.602;23.468;2023-08-30T04:48:21;6.10;;;3.55;;
6203;SDS011;3135;42.602;23.468;2023-08-30T04:50:47;5.60;;;2.80;;
6203;SDS011;3135;42.602;23.468;2023-08-30T04:53:12;3.90;;;2.87;;
6203;SDS011;3135;42.602;23.468;2023-08-30T04:55:37;8.33;;;3.80;;
6203;SDS011;3135;42.602;23.468;2023-08-30T04:58:03;6.20;;;3.50;;
6203;SDS011;3135;42.602;23.468;2023-08-30T05:00:28;5.77;;;3.70;;
6203;SDS011;3135;42.602;23.468;2023-08-30T05:02:54;5.50;;;3.25;;
6203;SDS011;3135;42.602;23.468;2023-08-30T05:05:19;6.47;;;3.60;;
6203;SDS011;3135;42.602;23.468;2023-08-30T05:07:44;6.07;;;3.60;;
6203;SDS011;3135;42.602;23.468;2023-08-30T05:10:10;5.63;;;3.23;;
6203;SDS011;3135;42.602;23.468;2023-08-30T05:12:35;6.18;;;2.65;;
6203;SDS011;3135;42.602;23.468;2023-08-30T05:15:01;6.78;;;3.00;;
6203;SDS011;3135;42.602;23.468;2023-08-30T05:17:29;5.18;;;3.08;;
6203;SDS011;3135;42.602;23.468;2023-08-30T05:19:54;7.33;;;3.20;;
6203;SDS011;3135;42.602;23.468;2023-08-30T05:22:20;5.43;;;2.75;;
6203;SDS011;3135;42.602;23.468;2023-08-30T05:24:45;5.15;;;2.38;;
6203;SDS011;3135;42.602;23.468;2023-08-30T05:27:11;3.57;;;2.67;;
6203;SDS011;3135;42.602;23.468;2023-08-30T05:29:37;7.13;;;2.80;;
6203;SDS011;3135;42.602;23.468;2023-08-30T05:32:03;9.37;;;3.20;;
6203;SDS011;3135;42.602;23.468;2023-08-30T05:34:29;4.33;;;2.83;;
6203;SDS011;3135;42.602;23.468;2023-08-30T05:36:54;6.93;;;3.27;;
6203;SDS011;3135;42.602;23.468;2023-08-30T05:39:20;7.90;;;2.90;;
6203;SDS011;3135;42.602;23.468;2023-08-30T05:41:45;4.13;;;2.50;;
6203;SDS011;3135;42.602;23.468;2023-08-30T05:44:11;7.27;;;3.10;;
6203;SDS011;3135;42.602;23.468;2023-08-30T05:46:36;4.83;;;2.87;;
6203;SDS011;3135;42.602;23.468;2023-08-30T05:49:01;6.57;;;3.03;;
6203;SDS011;3135;42.602;23.468;2023-08-30T05:51:28;4.40;;;2.97;;
6203;SDS011;3135;42.602;23.468;2023-08-30T05:53:53;5.93;;;3.60;;
6203;SDS011;3135;42.602;23.468;2023-08-30T05:56:19;6.45;;;3.67;;
6203;SDS011;3135;42.602;23.468;2023-08-30T05:58:44;6.90;;;3.80;;
6203;SDS011;3135;42.602;23.468;2023-08-30T06:01:10;6.47;;;3.47;;
6203;SDS011;3135;42.602;23.468;2023-08-30T06:03:35;9.43;;;3.88;;
6203;SDS011;3135;42.602;23.468;2023-08-30T06:06:00;6.07;;;3.53;;
6203;SDS011;3135;42.602;23.468;2023-08-30T06:08:26;6.97;;;3.80;;
6203;SDS011;3135;42.602;23.468;2023-08-30T06:10:52;9.30;;;4.27;;
6203;SDS011;3135;42.602;23.468;2023-08-30T06:13:17;9.57;;;4.43;;
6203;SDS011;3135;42.602;23.468;2023-08-30T06:15:43;9.05;;;4.93;;
6203;SDS011;3135;42.602;23.468;2023-08-30T06:18:10;9.27;;;5.07;;
6203;SDS011;3135;42.602;23.468;2023-08-30T06:20:35;10.55;;;5.53;;
6203;SDS011;3135;42.602;23.468;2023-08-30T06:23:02;12.90;;;5.50;;
6203;SDS011;3135;42.602;23.468;2023-08-30T06:25:28;11.48;;;5.80;;
6203;SDS011;3135;42.602;23.468;2023-08-30T06:27:57;12.00;;;5.57;;
6203;SDS011;3135;42.602;23.468;2023-08-30T06:30:33;10.83;;;5.10;;
6203;SDS011;3135;42.602;23.468;2023-08-30T06:32:58;7.53;;;4.40;;
6203;SDS011;3135;42.602;23.468;2023-08-30T06:35:24;5.82;;;3.13;;
6203;SDS011;3135;42.602;23.468;2023-08-30T06:37:49;7.00;;;3.65;;
6203;SDS011;3135;42.602;23.468;2023-08-30T06:40:15;4.40;;;2.63;;
6203;SDS011;3135;42.602;23.468;2023-08-30T06:42:40;4.73;;;2.90;;
6203;SDS011;3135;42.602;23.468;2023-08-30T06:45:06;5.43;;;2.77;;
6203;SDS011;3135;42.602;23.468;2023-08-30T06:47:32;4.43;;;2.90;;
6203;SDS011;3135;42.602;23.468;2023-08-30T06:49:57;6.47;;;2.63;;
6203;SDS011;3135;42.602;23.468;2023-08-30T06:52:24;3.70;;;2.55;;
6203;SDS011;3135;42.602;23.468;2023-08-30T06:54:49;4.80;;;2.97;;
6203;SDS011;3135;42.602;23.468;2023-08-30T06:57:15;5.23;;;2.87;;
6203;SDS011;3135;42.602;23.468;2023-08-30T06:59:41;5.57;;;2.83;;
6203;SDS011;3135;42.602;23.468;2023-08-30T07:02:06;5.93;;;3.10;;
6203;SDS011;3135;42.602;23.468;2023-08-30T07:04:31;8.75;;;3.50;;
6203;SDS011;3135;42.602;23.468;2023-08-30T07:06:57;9.03;;;3.70;;
6203;SDS011;3135;42.602;23.468;2023-08-30T07:09:22;5.37;;;2.90;;
6203;SDS011;3135;42.602;23.468;2023-08-30T07:11:53;5.45;;;3.35;;
6203;SDS011;3135;42.602;23.468;2023-08-30T07:14:19;4.25;;;3.00;;
6203;SDS011;3135;42.602;23.468;2023-08-30T07:16:45;4.63;;;2.70;;
6203;SDS011;3135;42.602;23.468;2023-08-30T07:19:11;4.80;;;2.90;;
6203;SDS011;3135;42.602;23.468;2023-08-30T07:21:36;7.25;;;3.05;;
6203;SDS011;3135;42.602;23.468;2023-08-30T07:24:03;3.40;;;2.33;;
6203;SDS011;3135;42.602;23.468;2023-08-30T07:26:31;5.55;;;2.80;;
6203;SDS011;3135;42.602;23.468;2023-08-30T07:28:56;4.47;;;2.67;;
6203;SDS011;3135;42.602;23.468;2023-08-30T07:31:22;4.73;;;2.70;;
6203;SDS011;3135;42.602;23.468;2023-08-30T07:33:47;4.10;;;2.60;;
6203;SDS011;3135;42.602;23.468;2023-08-30T07:36:13;4.10;;;2.70;;
6203;SDS011;3135;42.602;23.468;2023-08-30T07:38:38;5.43;;;3.00;;
6203;SDS011;3135;42.602;23.468;2023-08-30T07:41:04;5.87;;;3.17;;
6203;SDS011;3135;42.602;23.468;2023-08-30T07:43:29;4.10;;;2.80;;
6203;SDS011;3135;42.602;23.468;2023-08-30T07:45:55;5.57;;;3.08;;
6203;SDS011;3135;42.602;23.468;2023-08-30T07:48:21;5.70;;;3.10;;
6203;SDS011;3135;42.602;23.468;2023-08-30T07:50:47;3.73;;;2.77;;
6203;SDS011;3135;42.602;23.468;2023-08-30T07:53:12;5.30;;;3.22;;
6203;SDS011;3135;42.602;23.468;2023-08-30T07:55:38;4.67;;;3.07;;
6203;SDS011;3135;42.602;23.468;2023-08-30T07:58:03;6.20;;;2.93;;
6203;SDS011;3135;42.602;23.468;2023-08-30T08:00:29;4.05;;;2.75;;
6203;SDS011;3135;42.602;23.468;2023-08-30T08:02:54;4.45;;;2.75;;
6203;SDS011;3135;42.602;23.468;2023-08-30T08:05:20;3.73;;;2.67;;
6203;SDS011;3135;42.602;23.468;2023-08-30T08:07:45;4.43;;;2.90;;
6203;SDS011;3135;42.602;23.468;2023-08-30T08:10:15;4.22;;;2.30;;
6203;SDS011;3135;42.602;23.468;2023-08-30T08:12:40;3.33;;;2.60;;
6203;SDS011;3135;42.602;23.468;2023-08-30T08:15:06;3.80;;;2.60;;
6203;SDS011;3135;42.602;23.468;2023-08-30T08:17:32;3.67;;;2.47;;
6203;SDS011;3135;42.602;23.468;2023-08-30T08:19:57;3.87;;;2.70;;
6203;SDS011;3135;42.602;23.468;2023-08-30T08:22:22;3.90;;;3.00;;
6203;SDS011;3135;42.602;23.468;2023-08-30T08:24:48;4.10;;;2.47;;
6203;SDS011;3135;42.602;23.468;2023-08-30T08:27:14;6.28;;;2.80;;
6203;SDS011;3135;42.602;23.468;2023-08-30T08:29:39;5.40;;;2.63;;
6203;SDS011;3135;42.602;23.468;2023-08-30T08:32:05;6.27;;;2.50;;
6203;SDS011;3135;42.602;23.468;2023-08-30T08:34:30;4.70;;;3.05;;
6203;SDS011;3135;42.602;23.468;2023-08-30T08:36:56;4.87;;;2.83;;
6203;SDS011;3135;42.602;23.468;2023-08-30T08:39:21;5.53;;;2.88;;
6203;SDS011;3135;42.602;23.468;2023-08-30T08:41:46;7.37;;;3.17;;
6203;SDS011;3135;42.602;23.468;2023-08-30T08:44:13;7.43;;;2.70;;
6203;SDS011;3135;42.602;23.468;2023-08-30T08:46:39;5.97;;;2.53;;
6203;SDS011;3135;42.602;23.468;2023-08-30T08:49:12;5.85;;;2.70;;
6203;SDS011;3135;42.602;23.468;2023-08-30T08:51:39;9.10;;;4.22;;
6203;SDS011;3135;42.602;23.468;2023-08-30T08:54:05;7.07;;;4.07;;
6203;SDS011;3135;42.602;23.468;2023-08-30T08:56:31;8.63;;;4.27;;
6203;SDS011;3135;42.602;23.468;2023-08-30T08:58:58;7.93;;;4.28;;
6203;SDS011;3135;42.602;23.468;2023-08-30T09:01:24;11.18;;;4.50;;
6203;SDS011;3135;42.602;23.468;2023-08-30T09:03:50;8.27;;;4.72;;
6203;SDS011;3135;42.602;23.468;2023-08-30T09:06:16;8.75;;;4.55;;
6203;SDS011;3135;42.602;23.468;2023-08-30T09:08:42;12.55;;;5.28;;
6203;SDS011;3135;42.602;23.468;2023-08-30T09:11:07;9.25;;;4.20;;
6203;SDS011;3135;42.602;23.468;2023-08-30T09:13:33;7.33;;;4.07;;
6203;SDS011;3135;42.602;23.468;2023-08-30T09:15:59;10.65;;;5.20;;
6203;SDS011;3135;42.602;23.468;2023-08-30T09:18:24;9.40;;;4.85;;
6203;SDS011;3135;42.602;23.468;2023-08-30T09:21:08;9.97;;;4.70;;
6203;SDS011;3135;42.602;23.468;2023-08-30T09:23:34;9.73;;;5.00;;
6203;SDS011;3135;42.602;23.468;2023-08-30T09:26:01;6.03;;;3.50;;
6203;SDS011;3135;42.602;23.468;2023-08-30T09:28:27;8.50;;;3.25;;
6203;SDS011;3135;42.602;23.468;2023-08-30T09:30:53;7.03;;;4.25;;
6203;SDS011;3135;42.602;23.468;2023-08-30T09:33:37;8.37;;;4.00;;
6203;SDS011;3135;42.602;23.468;2023-08-30T09:36:02;6.43;;;3.63;;
6203;SDS011;3135;42.602;23.468;2023-08-30T09:38:36;8.93;;;4.07;;
6203;SDS011;3135;42.602;23.468;2023-08-30T09:41:03;7.63;;;3.83;;
6203;SDS011;3135;42.602;23.468;2023-08-30T09:43:29;8.70;;;3.80;;
6203;SDS011;3135;42.602;23.468;2023-08-30T09:45:54;7.33;;;4.03;;
6203;SDS011;3135;42.602;23.468;2023-08-30T09:48:21;4.70;;;3.03;;
6203;SDS011;3135;42.602;23.468;2023-08-30T09:50:51;5.95;;;3.40;;
6203;SDS011;3135;42.602;23.468;2023-08-30T09:53:19;6.13;;;3.20;;
6203;SDS011;3135;42.602;23.468;2023-08-30T09:55:46;5.15;;;2.88;;
6203;SDS011;3135;42.602;23.468;2023-08-30T09:58:14;6.40;;;3.20;;
6203;SDS011;3135;42.602;23.468;2023-08-30T10:00:40;8.75;;;3.20;;
6203;SDS011;3135;42.602;23.468;2023-08-30T10:03:07;6.10;;;3.40;;
6203;SDS011;3135;42.602;23.468;2023-08-30T10:05:33;4.78;;;3.03;;
6203;SDS011;3135;42.602;23.468;2023-08-30T10:08:00;4.97;;;3.03;;
6203;SDS011;3135;42.602;23.468;2023-08-30T10:10:27;4.07;;;3.08;;
6203;SDS011;3135;42.602;23.468;2023-08-30T10:12:56;4.70;;;2.80;;
6203;SDS011;3135;42.602;23.468;2023-08-30T10:15:22;5.82;;;3.05;;
6203;SDS011;3135;42.602;23.468;2023-08-30T10:17:51;6.55;;;3.33;;
6203;SDS011;3135;42.602;23.468;2023-08-30T10:20:19;5.05;;;2.80;;
6203;SDS011;3135;42.602;23.468;2023-08-30T10:22:45;6.05;;;3.55;;
6203;SDS011;3135;42.602;23.468;2023-08-30T10:25:16;4.78;;;2.85;;
6203;SDS011;3135;42.602;23.468;2023-08-30T10:27:46;6.85;;;3.35;;
6203;SDS011;3135;42.602;23.468;2023-08-30T10:30:14;5.57;;;3.72;;
6203;SDS011;3135;42.602;23.468;2023-08-30T10:32:42;6.07;;;3.63;;
6203;SDS011;3135;42.602;23.468;2023-08-30T10:35:12;4.82;;;3.40;;
6203;SDS011;3135;42.602;23.468;2023-08-30T10:37:39;4.57;;;3.58;;
6203;SDS011;3135;42.602;23.468;2023-08-30T10:40:05;5.00;;;3.53;;
6203;SDS011;3135;42.602;23.468;2023-08-30T10:42:33;5.43;;;3.30;;
6203;SDS011;3135;42.602;23.468;2023-08-30T10:45:00;4.57;;;3.33;;
6203;SDS011;3135;42.602;23.468;2023-08-30T10:47:34;6.25;;;3.80;;
6203;SDS011;3135;42.602;23.468;2023-08-30T10:50:09;5.77;;;3.70;;
6203;SDS011;3135;42.602;23.468;2023-08-30T10:52:36;5.57;;;3.42;;
6203;SDS011;3135;42.602;23.468;2023-08-30T10:57:41;11.73;;;6.25;;
6203;SDS011;3135;42.602;23.468;2023-08-30T11:02:47;12.63;;;5.00;;
6203;SDS011;3135;42.602;23.468;2023-08-30T11:05:18;7.53;;;3.90;;
6203;SDS011;3135;42.602;23.468;2023-08-30T11:07:46;6.63;;;3.60;;
6203;SDS011;3135;42.602;23.468;2023-08-30T11:10:14;4.68;;;3.67;;
6203;SDS011;3135;42.602;23.468;2023-08-30T11:12:40;7.75;;;3.63;;
6203;SDS011;3135;42.602;23.468;2023-08-30T11:15:06;4.33;;;3.67;;
6203;SDS011;3135;42.602;23.468;2023-08-30T11:17:33;4.90;;;3.10;;
6203;SDS011;3135;42.602;23.468;2023-08-30T11:20:09;8.20;;;3.53;;
6203;SDS011;3135;42.602;23.468;2023-08-30T11:22:36;6.50;;;3.63;;
6203;SDS011;3135;42.602;23.468;2023-08-30T11:25:03;5.30;;;3.20;;
6203;SDS011;3135;42.602;23.468;2023-08-30T11:27:29;6.53;;;3.30;;
6203;SDS011;3135;42.602;23.468;2023-08-30T11:29:58;7.57;;;3.67;;
6203;SDS011;3135;42.602;23.468;2023-08-30T11:32:24;4.77;;;3.43;;
6203;SDS011;3135;42.602;23.468;2023-08-30T11:34:56;5.10;;;3.57;;
6203;SDS011;3135;42.602;23.468;2023-08-30T11:37:23;5.85;;;3.50;;
6203;SDS011;3135;42.602;23.468;2023-08-30T11:39:51;7.37;;;3.80;;
6203;SDS011;3135;42.602;23.468;2023-08-30T11:42:17;5.43;;;3.47;;
6203;SDS011;3135;42.602;23.468;2023-08-30T11:44:44;4.73;;;3.80;;
6203;SDS011;3135;42.602;23.468;2023-08-30T11:47:10;5.53;;;3.67;;
6203;SDS011;3135;42.602;23.468;2023-08-30T11:49:35;6.40;;;4.00;;
6203;SDS011;3135;42.602;23.468;2023-08-30T11:52:01;5.70;;;3.80;;
6203;SDS011;3135;42.602;23.468;2023-08-30T11:54:27;7.07;;;3.40;;
6203;SDS011;3135;42.602;23.468;2023-08-30T11:56:53;6.07;;;3.93;;
6203;SDS011;3135;42.602;23.468;2023-08-30T11:59:19;5.60;;;4.17;;
6203;SDS011;3135;42.602;23.468;2023-08-30T12:01:47;6.35;;;3.80;;
6203;SDS011;3135;42.602;23.468;2023-08-30T12:04:17;8.30;;;4.07;;
6203;SDS011;3135;42.602;23.468;2023-08-30T12:06:44;5.60;;;4.03;;
6203;SDS011;3135;42.602;23.468;2023-08-30T12:09:16;5.00;;;3.80;;
6203;SDS011;3135;42.602;23.468;2023-08-30T12:11:41;6.03;;;4.20;;
6203;SDS011;3135;42.602;23.468;2023-08-30T12:14:07;6.60;;;4.20;;
6203;SDS011;3135;42.602;23.468;2023-08-30T12:16:32;7.10;;;4.40;;
6203;SDS011;3135;42.602;23.468;2023-08-30T12:19:06;7.47;;;4.40;;
6203;SDS011;3135;42.602;23.468;2023-08-30T12:21:42;5.82;;;4.32;;
6203;SDS011;3135;42.602;23.468;2023-08-30T12:24:08;5.53;;;4.25;;
6203;SDS011;3135;42.602;23.468;2023-08-30T12:26:34;6.45;;;4.43;;
6203;SDS011;3135;42.602;23.468;2023-08-30T12:28:59;7.03;;;4.43;;
6203;SDS011;3135;42.602;23.468;2023-08-30T12:31:25;8.90;;;4.67;;
6203;SDS011;3135;42.602;23.468;2023-08-30T12:33:52;6.65;;;5.07;;
6203;SDS011;3135;42.602;23.468;2023-08-30T12:36:19;4.50;;;4.10;;
6203;SDS011;3135;42.602;23.468;2023-08-30T12:38:45;6.33;;;4.57;;
6203;SDS011;3135;42.602;23.468;2023-08-30T12:41:10;8.38;;;4.63;;
6203;SDS011;3135;42.602;23.468;2023-08-30T12:43:35;7.03;;;4.60;;
6203;SDS011;3135;42.602;23.468;2023-08-30T12:46:01;5.20;;;4.38;;
6203;SDS011;3135;42.602;23.468;2023-08-30T12:48:26;8.70;;;4.50;;
6203;SDS011;3135;42.602;23.468;2023-08-30T12:50:52;6.38;;;4.00;;
6203;SDS011;3135;42.602;23.468;2023-08-30T12:53:17;5.63;;;4.10;;
6203;SDS011;3135;42.602;23.468;2023-08-30T12:55:43;7.63;;;4.70;;
6203;SDS011;3135;42.602;23.468;2023-08-30T12:58:08;7.03;;;4.70;;
6203;SDS011;3135;42.602;23.468;2023-08-30T13:00:34;4.18;;;3.65;;
6203;SDS011;3135;42.602;23.468;2023-08-30T13:03:00;5.50;;;3.88;;
6203;SDS011;3135;42.602;23.468;2023-08-30T13:05:26;6.32;;;4.18;;
6203;SDS011;3135;42.602;23.468;2023-08-30T13:07:52;5.65;;;3.97;;
6203;SDS011;3135;42.602;23.468;2023-08-30T13:10:17;7.90;;;4.57;;
6203;SDS011;3135;42.602;23.468;2023-08-30T13:12:43;6.13;;;4.23;;
6203;SDS011;3135;42.602;23.468;2023-08-30T13:15:09;6.67;;;3.80;;
6203;SDS011;3135;42.602;23.468;2023-08-30T13:17:34;5.95;;;4.15;;
6203;SDS011;3135;42.602;23.468;2023-08-30T13:20:00;7.53;;;4.10;;
6203;SDS011;3135;42.602;23.468;2023-08-30T13:22:26;6.60;;;3.90;;
6203;SDS011;3135;42.602;23.468;2023-08-30T13:24:52;5.68;;;4.25;;
6203;SDS011;3135;42.602;23.468;2023-08-30T13:27:18;6.30;;;4.70;;
6203;SDS011;3135;42.602;23.468;2023-08-30T13:29:44;8.95;;;4.18;;
6203;SDS011;3135;42.602;23.468;2023-08-30T13:32:10;6.53;;;4.00;;
6203;SDS011;3135;42.602;23.468;2023-08-30T13:34:35;5.47;;;4.17;;
6203;SDS011;3135;42.602;23.468;2023-08-30T13:37:01;7.83;;;4.07;;
6203;SDS011;3135;42.602;23.468;2023-08-30T13:39:26;7.60;;;3.67;;
6203;SDS011;3135;42.602;23.468;2023-08-30T13:41:52;6.40;;;4.20;;
6203;SDS011;3135;42.602;23.468;2023-08-30T13:44:17;4.40;;;3.90;;
6203;SDS011;3135;42.602;23.468;2023-08-30T13:46:46;7.25;;;4.80;;
6203;SDS011;3135;42.602;23.468;2023-08-30T13:49:13;6.13;;;4.27;;
6203;SDS011;3135;42.602;23.468;2023-08-30T13:51:39;4.72;;;4.03;;
6203;SDS011;3135;42.602;23.468;2023-08-30T13:56:57;6.90;;;4.35;;
6203;SDS011;3135;42.602;23.468;2023-08-30T13:59:23;7.80;;;4.25;;
6203;SDS011;3135;42.602;23.468;2023-08-30T14:01:48;6.72;;;4.68;;
6203;SDS011;3135;42.602;23.468;2023-08-30T14:04:13;6.07;;;4.67;;
6203;SDS011;3135;42.602;23.468;2023-08-30T14:06:39;7.78;;;5.15;;
6203;SDS011;3135;42.602;23.468;2023-08-30T14:09:04;6.80;;;4.40;;
6203;SDS011;3135;42.602;23.468;2023-08-30T14:11:33;5.45;;;4.55;;
6203;SDS011;3135;42.602;23.468;2023-08-30T14:14:00;7.82;;;4.50;;
6203;SDS011;3135;42.602;23.468;2023-08-30T14:16:26;6.80;;;4.47;;
6203;SDS011;3135;42.602;23.468;2023-08-30T14:18:52;5.17;;;4.20;;
6203;SDS011;3135;42.602;23.468;2023-08-30T14:21:17;5.97;;;4.60;;
6203;SDS011;3135;42.602;23.468;2023-08-30T14:23:43;9.03;;;4.30;;
6203;SDS011;3135;42.602;23.468;2023-08-30T14:26:08;7.77;;;4.50;;
6203;SDS011;3135;42.602;23.468;2023-08-30T14:28:35;6.13;;;4.50;;
6203;SDS011;3135;42.602;23.468;2023-08-30T14:31:08;4.72;;;4.03;;
6203;SDS011;3135;42.602;23.468;2023-08-30T14:33:34;7.80;;;4.53;;
6203;SDS011;3135;42.602;23.468;2023-08-30T14:35:59;5.57;;;4.38;;
6203;SDS011;3135;42.602;23.468;2023-08-30T14:38:27;6.57;;;4.67;;
6203;SDS011;3135;42.602;23.468;2023-08-30T14:40:56;6.03;;;4.30;;
6203;SDS011;3135;42.602;23.468;2023-08-30T14:43:26;7.72;;;4.15;;
6203;SDS011;3135;42.602;23.468;2023-08-30T14:45:58;6.07;;;4.20;;
6203;SDS011;3135;42.602;23.468;2023-08-30T14:48:28;6.70;;;4.10;;
6203;SDS011;3135;42.602;23.468;2023-08-30T14:50:54;5.97;;;4.33;;
6203;SDS011;3135;42.602;23.468;2023-08-30T14:53:19;5.63;;;4.50;;
6203;SDS011;3135;42.602;23.468;2023-08-30T14:55:45;6.60;;;3.87;;
6203;SDS011;3135;42.602;23.468;2023-08-30T14:58:13;6.57;;;4.38;;
6203;SDS011;3135;42.602;23.468;2023-08-30T15:00:39;5.50;;;4.33;;
6203;SDS011;3135;42.602;23.468;2023-08-30T15:03:05;7.28;;;4.22;;
6203;SDS011;3135;42.602;23.468;2023-08-30T15:05:31;6.43;;;3.97;;
6203;SDS011;3135;42.602;23.468;2023-08-30T15:07:56;7.03;;;4.20;;
6203;SDS011;3135;42.602;23.468;2023-08-30T15:10:22;6.43;;;4.20;;
6203;SDS011;3135;42.602;23.468;2023-08-30T15:12:47;5.25;;;4.10;;